createdAt,value
2017-07-19T00:02:17.567Z,11.20
2017-07-19T00:04:44.774Z,12.00
2017-07-19T00:07:11.215Z,11.02
2017-07-19T00:09:37.671Z,11.33
2017-07-19T00:12:04.133Z,11.30
2017-07-19T00:14:30.688Z,11.38
2017-07-19T00:16:57.245Z,11.80
2017-07-19T00:19:23.803Z,12.40
2017-07-19T00:21:50.363Z,11.67
2017-07-19T00:24:16.826Z,11.40
2017-07-19T00:26:43.244Z,11.20
2017-07-19T00:29:09.709Z,11.70
2017-07-19T00:31:36.912Z,12.00
2017-07-19T00:34:03.876Z,11.63
2017-07-19T00:36:30.352Z,11.48
2017-07-19T00:38:56.787Z,10.63
2017-07-19T00:41:23.254Z,11.10
2017-07-19T00:43:50.344Z,11.25
2017-07-19T00:46:16.768Z,11.20
2017-07-19T00:48:43.220Z,10.80
2017-07-19T00:51:09.686Z,11.02
2017-07-19T00:53:36.236Z,11.10
2017-07-19T00:56:02.698Z,10.70
2017-07-19T00:58:29.148Z,11.50
2017-07-19T01:00:55.556Z,11.30
2017-07-19T01:03:22.679Z,11.35
2017-07-19T01:05:49.113Z,11.60
2017-07-19T01:08:16.301Z,11.30
2017-07-19T01:10:43.070Z,11.80
2017-07-19T01:13:09.495Z,12.00
2017-07-19T01:15:35.929Z,10.90
2017-07-19T01:18:02.389Z,10.43
2017-07-19T01:20:28.861Z,10.98
2017-07-19T01:22:55.289Z,10.98
2017-07-19T01:25:21.803Z,11.00
2017-07-19T01:27:48.360Z,11.20
2017-07-19T01:30:14.842Z,10.73
2017-07-19T01:32:41.334Z,11.10
2017-07-19T01:35:07.867Z,10.95
2017-07-19T01:37:34.321Z,11.10
2017-07-19T01:40:00.820Z,10.93
2017-07-19T01:42:27.290Z,10.23
2017-07-19T01:44:54.512Z,10.90
2017-07-19T01:47:20.992Z,10.80
2017-07-19T01:49:47.466Z,10.82
2017-07-19T01:52:14.717Z,10.40
2017-07-19T01:54:41.200Z,10.03
2017-07-19T01:59:04.019Z,10.70
2017-07-19T02:01:30.518Z,10.43
2017-07-19T02:03:56.978Z,10.10
2017-07-19T02:06:23.412Z,10.32
2017-07-19T02:08:50.665Z,10.00
2017-07-19T02:11:17.349Z,10.43
2017-07-19T02:13:44.643Z,10.68
2017-07-19T02:16:11.102Z,10.63
2017-07-19T02:18:37.548Z,10.20
2017-07-19T02:21:04.005Z,10.52
2017-07-19T02:23:30.939Z,10.50
2017-07-19T02:25:57.433Z,10.60
2017-07-19T02:28:23.853Z,10.32
2017-07-19T02:30:50.295Z,10.90
2017-07-19T02:33:16.723Z,10.30
2017-07-19T02:35:43.158Z,10.90
2017-07-19T02:38:09.601Z,11.30
2017-07-19T02:40:36.784Z,10.85
2017-07-19T02:43:03.240Z,11.32
2017-07-19T02:45:31.267Z,11.07
2017-07-19T02:47:57.792Z,10.82
2017-07-19T02:50:24.240Z,10.75
2017-07-19T02:52:51.417Z,10.05
2017-07-19T02:55:17.901Z,11.50
2017-07-19T02:57:44.331Z,10.70
2017-07-19T03:00:10.838Z,11.10
2017-07-19T03:02:37.277Z,10.90
2017-07-19T03:05:03.726Z,11.90
2017-07-19T03:07:30.181Z,11.82
2017-07-19T03:09:56.605Z,11.70
2017-07-19T03:12:23.816Z,11.45
2017-07-19T03:14:50.531Z,11.10
2017-07-19T03:17:17.744Z,11.10
2017-07-19T03:19:44.155Z,10.63
2017-07-19T03:22:11.457Z,11.40
2017-07-19T03:24:37.885Z,10.90
2017-07-19T03:27:05.188Z,10.40
2017-07-19T03:29:31.664Z,10.67
2017-07-19T03:31:58.192Z,10.67
2017-07-19T03:34:24.693Z,10.43
2017-07-19T03:36:51.209Z,11.50
2017-07-19T03:39:17.681Z,10.27
2017-07-19T03:41:44.157Z,11.10
2017-07-19T03:45:47.034Z,11.40
2017-07-19T03:48:13.458Z,9.82
2017-07-19T03:50:40.650Z,10.70
2017-07-19T03:53:07.103Z,10.50
2017-07-19T03:55:33.550Z,10.20
2017-07-19T03:58:00.734Z,10.50
2017-07-19T04:00:27.189Z,9.73
2017-07-19T04:02:53.623Z,10.20
2017-07-19T04:05:20.832Z,9.50
2017-07-19T04:07:47.378Z,10.27
2017-07-19T04:10:14.067Z,10.02
2017-07-19T04:12:40.555Z,10.20
2017-07-19T04:15:07.382Z,9.07
2017-07-19T04:17:33.891Z,8.80
2017-07-19T04:20:00.372Z,9.50
2017-07-19T04:22:27.342Z,9.30
2017-07-19T04:24:54.900Z,8.45
2017-07-19T04:27:21.338Z,8.57
2017-07-19T04:29:47.823Z,8.13
2017-07-19T04:32:16.085Z,8.38
2017-07-19T04:34:42.513Z,7.90
2017-07-19T04:37:08.978Z,8.32
2017-07-19T04:39:35.500Z,8.25
2017-07-19T04:42:02.021Z,10.38
2017-07-19T04:44:28.439Z,8.40
2017-07-19T04:46:54.971Z,8.13
2017-07-19T04:49:21.468Z,8.43
2017-07-19T04:51:47.989Z,7.80
2017-07-19T04:54:14.461Z,8.40
2017-07-19T04:56:40.933Z,8.60
2017-07-19T04:59:07.455Z,8.70
2017-07-19T05:01:34.118Z,8.10
2017-07-19T05:04:00.576Z,7.45
2017-07-19T05:06:27.013Z,7.72
2017-07-19T05:08:54.200Z,7.68
2017-07-19T05:11:20.656Z,7.90
2017-07-19T05:13:47.168Z,7.45
2017-07-19T05:16:13.610Z,7.20
2017-07-19T05:18:40.088Z,7.43
2017-07-19T05:21:06.564Z,6.80
2017-07-19T05:23:33.760Z,7.20
2017-07-19T05:26:00.246Z,7.57
2017-07-19T05:28:26.668Z,6.90
2017-07-19T05:30:53.072Z,7.05
2017-07-19T05:33:19.527Z,7.40
2017-07-19T05:35:45.982Z,6.70
2017-07-19T05:38:12.972Z,6.45
2017-07-19T05:40:39.445Z,7.93
2017-07-19T05:43:06.633Z,6.15
2017-07-19T05:45:33.193Z,6.57
2017-07-19T05:47:59.613Z,6.00
2017-07-19T05:50:26.061Z,6.40
2017-07-19T05:52:52.763Z,6.50
2017-07-19T05:55:19.871Z,6.55
2017-07-19T05:57:46.326Z,6.18
2017-07-19T06:00:27.780Z,5.62
2017-07-19T06:02:54.302Z,6.03
2017-07-19T06:05:20.766Z,6.10
2017-07-19T06:07:47.965Z,6.60
2017-07-19T06:10:15.118Z,5.90
2017-07-19T06:12:42.306Z,5.80
2017-07-19T06:15:08.760Z,5.93
2017-07-19T06:17:35.934Z,5.80
2017-07-19T06:20:02.517Z,5.60
2017-07-19T06:22:28.971Z,5.28
2017-07-19T06:24:55.452Z,5.68
2017-07-19T06:27:21.869Z,5.30
2017-07-19T06:29:48.350Z,5.83
2017-07-19T06:32:14.881Z,6.50
2017-07-19T06:34:41.389Z,5.40
2017-07-19T06:37:08.317Z,5.82
2017-07-19T06:39:34.742Z,5.87
2017-07-19T06:42:01.931Z,5.57
2017-07-19T06:44:28.491Z,5.60
2017-07-19T06:46:55.279Z,5.95
2017-07-19T06:49:21.813Z,5.60
2017-07-19T06:51:48.233Z,5.90
2017-07-19T06:54:15.420Z,5.90
2017-07-19T06:56:42.568Z,5.62
2017-07-19T06:59:09.148Z,5.37
2017-07-19T07:01:35.592Z,6.20
2017-07-19T07:04:02.186Z,6.00
2017-07-19T07:06:28.633Z,5.50
2017-07-19T07:08:55.918Z,5.45
2017-07-19T07:11:22.350Z,6.95
2017-07-19T07:13:49.553Z,5.43
2017-07-19T07:16:16.025Z,5.40
2017-07-19T07:18:42.454Z,5.47
2017-07-19T07:21:09.638Z,5.30
2017-07-19T07:23:36.391Z,5.10
2017-07-19T07:26:02.862Z,5.70
2017-07-19T07:28:29.319Z,5.57
2017-07-19T07:30:55.863Z,5.47
2017-07-19T07:33:22.379Z,5.80
2017-07-19T07:35:48.865Z,4.70
2017-07-19T07:38:15.318Z,4.90
2017-07-19T07:40:42.615Z,4.60
2017-07-19T07:43:10.396Z,4.43
2017-07-19T07:45:36.868Z,4.50
2017-07-19T07:48:03.451Z,4.50
2017-07-19T07:50:30.070Z,4.68
2017-07-19T07:52:56.971Z,4.50
2017-07-19T07:55:23.448Z,4.40
2017-07-19T07:57:49.953Z,4.77
2017-07-19T08:00:16.460Z,4.12
2017-07-19T08:02:43.065Z,4.22
2017-07-19T08:05:09.534Z,4.72
2017-07-19T08:07:36.187Z,4.25
2017-07-19T08:10:02.743Z,4.25
2017-07-19T08:12:29.199Z,4.80
2017-07-19T08:14:55.646Z,4.45
2017-07-19T08:17:22.047Z,4.55
2017-07-19T08:19:48.476Z,4.27
2017-07-19T08:22:14.943Z,5.10
2017-07-19T08:24:41.395Z,5.10
2017-07-19T08:27:07.820Z,4.53
2017-07-19T08:29:34.977Z,4.90
2017-07-19T08:32:01.509Z,4.97
2017-07-19T08:34:27.941Z,5.15
2017-07-19T08:36:54.477Z,4.50
2017-07-19T08:39:21.034Z,5.30
2017-07-19T08:41:47.490Z,5.00
2017-07-19T08:44:14.174Z,5.27
2017-07-19T08:46:40.606Z,5.40
2017-07-19T08:49:07.768Z,4.70
2017-07-19T08:51:35.710Z,5.73
2017-07-19T08:54:02.137Z,6.00
2017-07-19T08:56:28.560Z,6.00
2017-07-19T08:58:56.040Z,5.80
2017-07-19T09:01:23.216Z,6.85
2017-07-19T09:03:50.402Z,5.45
2017-07-19T09:06:16.920Z,6.62
2017-07-19T09:08:43.356Z,6.37
2017-07-19T09:11:10.426Z,6.47
2017-07-19T09:13:36.869Z,6.10
2017-07-19T09:16:03.936Z,5.95
2017-07-19T09:18:30.470Z,5.72
2017-07-19T09:20:56.955Z,6.25
2017-07-19T09:23:23.487Z,5.90
2017-07-19T09:25:49.926Z,5.90
2017-07-19T09:28:17.111Z,6.00
2017-07-19T09:30:43.571Z,5.67
2017-07-19T09:33:10.003Z,6.00
2017-07-19T09:35:37.199Z,6.20
2017-07-19T09:38:03.665Z,6.78
2017-07-19T09:40:30.129Z,6.60
2017-07-19T09:42:56.765Z,6.10
2017-07-19T09:45:23.213Z,5.40
2017-07-19T09:47:50.580Z,5.80
2017-07-19T09:50:17.060Z,5.97
2017-07-19T09:52:43.510Z,5.53
2017-07-19T09:55:10.792Z,5.47
2017-07-19T09:57:37.198Z,6.10
2017-07-19T10:00:03.794Z,5.40
2017-07-19T10:02:30.829Z,5.70
2017-07-19T10:04:57.434Z,5.60
2017-07-19T10:07:38.783Z,5.80
2017-07-19T10:10:05.828Z,5.70
2017-07-19T10:12:32.347Z,5.10
2017-07-19T10:15:13.707Z,5.80
2017-07-19T10:17:40.139Z,6.00
2017-07-19T10:20:06.597Z,6.15
2017-07-19T10:22:33.377Z,5.43
2017-07-19T10:25:14.904Z,5.40
2017-07-19T10:27:41.373Z,5.90
2017-07-19T10:30:07.849Z,6.03
2017-07-19T10:32:34.946Z,5.85
2017-07-19T10:35:01.411Z,5.50
2017-07-19T10:37:27.875Z,5.50
2017-07-19T10:39:55.075Z,5.97
2017-07-19T10:42:21.631Z,5.65
2017-07-19T10:44:48.091Z,5.90
2017-07-19T10:47:14.520Z,5.40
2017-07-19T10:49:40.949Z,5.60
2017-07-19T10:52:07.412Z,5.50
2017-07-19T10:54:33.912Z,5.90
2017-07-19T10:57:00.362Z,5.65
2017-07-19T10:59:27.614Z,5.60
2017-07-19T11:01:54.650Z,5.70
2017-07-19T11:04:21.155Z,5.62
2017-07-19T11:06:48.448Z,6.50
2017-07-19T11:09:15.002Z,5.50
2017-07-19T11:11:41.461Z,6.20
2017-07-19T11:14:08.559Z,5.50
2017-07-19T11:16:35.085Z,5.90
2017-07-19T11:19:01.539Z,5.68
2017-07-19T11:21:28.211Z,5.55
2017-07-19T11:23:54.695Z,5.20
2017-07-19T11:26:21.271Z,5.70
2017-07-19T11:29:02.718Z,5.50
2017-07-19T11:31:29.572Z,5.43
2017-07-19T11:33:56.041Z,5.50
2017-07-19T11:36:22.517Z,5.72
2017-07-19T11:38:49.593Z,5.95
2017-07-19T11:41:16.078Z,5.50
2017-07-19T11:43:42.670Z,5.40
2017-07-19T11:46:09.142Z,5.43
2017-07-19T11:48:35.583Z,5.80
2017-07-19T11:51:02.458Z,5.03
2017-07-19T11:53:28.898Z,5.62
2017-07-19T11:55:56.061Z,5.70
2017-07-19T11:58:23.242Z,7.05
2017-07-19T12:00:50.115Z,6.30
2017-07-19T12:03:16.522Z,5.95
2017-07-19T12:05:44.141Z,6.00
2017-07-19T12:08:10.619Z,6.15
2017-07-19T12:10:37.060Z,6.00
2017-07-19T12:13:04.263Z,6.50
2017-07-19T12:15:30.713Z,6.30
2017-07-19T12:17:57.213Z,6.00
2017-07-19T12:20:23.787Z,6.30
2017-07-19T12:22:51.034Z,6.30
2017-07-19T12:25:17.479Z,6.10
2017-07-19T12:27:43.922Z,6.67
2017-07-19T12:30:10.998Z,6.40
2017-07-19T12:32:37.418Z,6.43
2017-07-19T12:35:03.838Z,6.87
2017-07-19T12:37:30.354Z,7.18
2017-07-19T12:39:59.768Z,7.30
2017-07-19T12:42:26.414Z,6.80
2017-07-19T12:44:53.236Z,6.40
2017-07-19T12:47:19.824Z,6.70
2017-07-19T12:49:47.316Z,6.70
2017-07-19T12:52:13.737Z,6.28
2017-07-19T12:54:40.961Z,6.10
2017-07-19T12:57:08.897Z,7.00
2017-07-19T13:01:31.267Z,7.40
2017-07-19T13:03:57.733Z,6.93
2017-07-19T13:06:24.207Z,7.80
2017-07-19T13:08:50.656Z,7.40
2017-07-19T13:11:17.085Z,6.53
2017-07-19T13:13:44.293Z,6.62
2017-07-19T13:16:10.736Z,6.70
2017-07-19T13:18:37.199Z,7.00
2017-07-19T13:21:03.716Z,7.50
2017-07-19T13:23:30.900Z,7.30
2017-07-19T13:25:58.101Z,7.37
2017-07-19T13:28:24.544Z,7.10
2017-07-19T13:30:50.974Z,7.12
2017-07-19T13:33:18.121Z,6.60
2017-07-19T13:35:44.554Z,7.25
2017-07-19T13:38:11.587Z,6.70
2017-07-19T13:40:38.146Z,6.70
2017-07-19T13:43:04.705Z,6.70
2017-07-19T13:45:31.263Z,6.90
2017-07-19T13:47:57.826Z,6.45
2017-07-19T13:50:24.305Z,7.20
2017-07-19T13:52:50.794Z,6.62
2017-07-19T13:55:17.276Z,6.18
2017-07-19T13:57:44.671Z,6.43
2017-07-19T14:00:11.231Z,6.30
2017-07-19T14:02:37.769Z,6.35
2017-07-19T14:05:04.889Z,6.47
2017-07-19T14:07:32.352Z,6.50
2017-07-19T14:09:59.099Z,6.85
2017-07-19T14:12:25.733Z,5.97
2017-07-19T14:14:52.178Z,6.43
2017-07-19T14:17:18.775Z,6.57
2017-07-19T14:19:45.377Z,6.57
2017-07-19T14:22:11.895Z,6.70
2017-07-19T14:24:38.334Z,6.80
2017-07-19T14:27:05.594Z,6.57
2017-07-19T14:29:32.180Z,6.28
2017-07-19T14:31:58.668Z,6.80
2017-07-19T14:34:40.280Z,7.18
2017-07-19T14:37:06.776Z,6.30
2017-07-19T14:39:33.959Z,6.72
2017-07-19T14:42:00.430Z,6.80
2017-07-19T14:44:26.973Z,6.57
2017-07-19T14:46:53.532Z,6.72
2017-07-19T14:49:20.092Z,6.68
2017-07-19T14:51:46.536Z,6.10
2017-07-19T14:54:13.720Z,6.13
2017-07-19T14:56:40.132Z,6.32
2017-07-19T14:59:07.099Z,6.40
2017-07-19T15:01:33.547Z,6.65
2017-07-19T15:04:00.060Z,6.60
2017-07-19T15:06:26.487Z,6.30
2017-07-19T15:08:53.677Z,5.90
2017-07-19T15:11:20.888Z,6.18
2017-07-19T15:13:47.385Z,6.20
2017-07-19T15:16:13.841Z,6.60
2017-07-19T15:18:40.331Z,6.50
2017-07-19T15:21:06.803Z,6.70
2017-07-19T15:23:33.223Z,7.75
2017-07-19T15:26:00.399Z,6.30
2017-07-19T15:28:26.831Z,6.50
2017-07-19T15:30:54.007Z,6.28
2017-07-19T15:33:20.442Z,6.15
2017-07-19T15:35:46.906Z,6.50
2017-07-19T15:38:13.393Z,6.93
2017-07-19T15:40:40.784Z,6.37
2017-07-19T15:43:07.240Z,6.37
2017-07-19T15:45:33.703Z,6.70
2017-07-19T15:48:00.158Z,7.00
2017-07-19T15:50:26.622Z,6.77
2017-07-19T15:52:53.082Z,6.40
2017-07-19T15:55:19.634Z,6.40
2017-07-19T15:57:46.070Z,6.55
2017-07-19T16:00:13.358Z,6.00
2017-07-19T16:02:39.860Z,6.45
2017-07-19T16:05:06.579Z,6.53
2017-07-19T16:07:33.060Z,6.18
2017-07-19T16:09:59.552Z,6.57
2017-07-19T16:12:26.045Z,5.95
2017-07-19T16:14:52.600Z,6.10
2017-07-19T16:17:19.088Z,6.10
2017-07-19T16:19:45.577Z,6.60
2017-07-19T16:22:12.078Z,6.70
2017-07-19T16:24:38.634Z,5.95
2017-07-19T16:27:05.087Z,6.10
2017-07-19T16:29:32.300Z,6.10
2017-07-19T16:31:58.745Z,6.00
2017-07-19T16:34:25.151Z,6.20
2017-07-19T16:36:55.542Z,6.20
2017-07-19T16:39:21.961Z,5.90
2017-07-19T16:41:48.439Z,6.60
2017-07-19T16:44:14.893Z,5.95
2017-07-19T16:46:41.324Z,5.60
2017-07-19T16:49:09.022Z,6.10
2017-07-19T16:51:36.220Z,6.40
2017-07-19T16:54:02.718Z,7.30
2017-07-19T16:56:29.421Z,7.00
2017-07-19T16:58:55.973Z,6.73
2017-07-19T17:01:22.480Z,6.40
2017-07-19T17:03:49.155Z,6.30
2017-07-19T17:06:15.752Z,7.15
2017-07-19T17:08:42.720Z,7.75
2017-07-19T17:11:09.279Z,7.93
2017-07-19T17:13:35.837Z,7.50
2017-07-19T17:16:02.351Z,7.87
2017-07-19T17:18:28.815Z,8.10
2017-07-19T17:20:56.232Z,8.10
2017-07-19T17:23:22.729Z,8.50
2017-07-19T17:25:49.244Z,8.10
2017-07-19T17:28:15.712Z,7.85
2017-07-19T17:30:42.258Z,7.90
2017-07-19T17:33:08.799Z,7.60
2017-07-19T17:35:36.195Z,7.47
2017-07-19T17:38:02.646Z,8.00
2017-07-19T17:40:29.206Z,7.80
2017-07-19T17:42:55.766Z,7.80
2017-07-19T17:45:22.226Z,7.72
2017-07-19T17:47:48.779Z,7.60
2017-07-19T17:50:15.218Z,7.85
2017-07-19T17:52:42.408Z,7.28
2017-07-19T17:55:08.831Z,7.80
2017-07-19T17:57:35.255Z,8.05
2017-07-19T18:00:01.737Z,7.50
2017-07-19T18:02:28.211Z,7.40
2017-07-19T18:04:54.791Z,7.95
2017-07-19T18:07:21.261Z,7.80
2017-07-19T18:09:47.767Z,8.25
2017-07-19T18:12:14.247Z,8.27
2017-07-19T18:14:41.446Z,8.10
2017-07-19T18:17:07.889Z,8.50
2017-07-19T18:19:34.449Z,8.55
2017-07-19T18:22:01.008Z,8.30
2017-07-19T18:24:27.475Z,7.80
2017-07-19T18:26:53.965Z,8.00
2017-07-19T18:29:20.481Z,8.02
2017-07-19T18:31:47.656Z,7.95
2017-07-19T18:34:14.519Z,8.25
2017-07-19T18:36:41.040Z,8.15
2017-07-19T18:39:07.502Z,8.10
2017-07-19T18:41:33.930Z,8.60
2017-07-19T18:44:00.953Z,8.38
2017-07-19T18:46:27.514Z,8.17
2017-07-19T18:48:54.014Z,7.90
2017-07-19T18:51:20.531Z,7.93
2017-07-19T18:53:47.087Z,7.60
2017-07-19T18:56:13.642Z,7.25
2017-07-19T18:58:41.532Z,6.70
2017-07-19T19:01:08.092Z,7.30
2017-07-19T19:03:35.365Z,7.40
2017-07-19T19:06:02.231Z,7.60
2017-07-19T19:08:29.156Z,7.60
2017-07-19T19:10:56.778Z,7.37
2017-07-19T19:13:23.336Z,7.20
2017-07-19T19:15:50.394Z,7.45
2017-07-19T19:20:55.392Z,7.30
2017-07-19T19:23:22.439Z,7.70
2017-07-19T19:25:50.450Z,8.27
2017-07-19T19:28:17.928Z,7.78
2017-07-19T19:30:44.998Z,8.00
2017-07-19T19:33:13.476Z,8.02
2017-07-19T19:35:40.980Z,8.13
2017-07-19T19:38:07.501Z,8.60
2017-07-19T19:40:35.182Z,8.80
2017-07-19T19:43:01.784Z,8.90
2017-07-19T19:45:29.478Z,9.30
2017-07-19T19:47:56.327Z,9.45
2017-07-19T19:50:23.093Z,9.00
2017-07-19T19:52:49.570Z,9.52
2017-07-19T19:55:16.032Z,9.20
2017-07-19T19:57:42.482Z,9.30
2017-07-19T20:00:08.930Z,9.13
2017-07-19T20:02:35.480Z,9.50
2017-07-19T20:05:02.055Z,9.32
2017-07-19T20:07:28.565Z,10.98
2017-07-19T20:09:55.224Z,10.50
2017-07-19T20:12:21.810Z,10.00
2017-07-19T20:14:48.368Z,10.20
2017-07-19T20:17:14.882Z,10.23
2017-07-19T20:19:41.383Z,10.20
2017-07-19T20:22:07.947Z,10.20
2017-07-19T20:24:34.661Z,10.40
2017-07-19T20:27:01.217Z,9.40
2017-07-19T20:29:27.695Z,9.70
2017-07-19T20:31:55.097Z,9.95
2017-07-19T20:34:21.653Z,9.80
2017-07-19T20:36:48.211Z,9.32
2017-07-19T20:39:16.201Z,9.18
2017-07-19T20:41:42.763Z,8.70
2017-07-19T20:44:09.424Z,9.13
2017-07-19T20:46:35.876Z,9.03
2017-07-19T20:49:03.254Z,9.60
2017-07-19T20:51:29.861Z,9.90
2017-07-19T20:53:56.396Z,9.48
2017-07-19T20:56:22.829Z,9.15
2017-07-19T20:58:49.346Z,9.40
2017-07-19T21:01:16.155Z,9.00
2017-07-19T21:03:42.706Z,8.80
2017-07-19T21:06:09.150Z,8.23
2017-07-19T21:08:36.344Z,9.00
2017-07-19T21:11:02.769Z,8.93
2017-07-19T21:13:30.066Z,9.40
2017-07-19T21:15:56.540Z,8.98
2017-07-19T21:18:23.080Z,8.85
2017-07-19T21:20:49.504Z,9.30
2017-07-19T21:23:15.960Z,9.30
2017-07-19T21:25:42.411Z,8.77
2017-07-19T21:28:09.366Z,9.35
2017-07-19T21:30:36.485Z,9.00
2017-07-19T21:33:02.917Z,8.50
2017-07-19T21:35:29.370Z,8.68
2017-07-19T21:37:56.565Z,8.90
2017-07-19T21:40:23.793Z,9.15
2017-07-19T21:42:50.305Z,8.90
2017-07-19T21:45:16.778Z,9.43
2017-07-19T21:47:43.245Z,9.45
2017-07-19T21:50:09.775Z,8.90
2017-07-19T21:52:36.226Z,8.35
2017-07-19T21:55:02.678Z,8.02
2017-07-19T21:57:29.844Z,8.00
2017-07-19T21:59:57.007Z,7.80
2017-07-19T22:02:24.350Z,7.10
2017-07-19T22:04:51.672Z,7.75
2017-07-19T22:07:19.381Z,7.03
2017-07-19T22:09:45.910Z,5.85
2017-07-19T22:12:13.238Z,5.60
2017-07-19T22:14:40.850Z,5.50
2017-07-19T22:17:07.437Z,5.77
2017-07-19T22:19:33.907Z,5.53
2017-07-19T22:22:01.202Z,5.62
2017-07-19T22:24:28.216Z,5.30
2017-07-19T22:26:54.909Z,5.00
2017-07-19T22:29:21.317Z,5.47
2017-07-19T22:34:26.753Z,5.00
2017-07-19T22:36:53.215Z,5.10
2017-07-19T22:39:19.706Z,5.00
2017-07-19T22:41:46.155Z,5.40
2017-07-19T22:44:12.574Z,4.65
2017-07-19T22:46:39.010Z,4.87
2017-07-19T22:49:21.088Z,5.30
2017-07-19T22:51:47.500Z,4.75
2017-07-19T22:54:14.046Z,4.53
2017-07-19T22:56:40.560Z,4.15
2017-07-19T22:59:07.008Z,3.90
2017-07-19T23:01:33.470Z,4.40
2017-07-19T23:03:59.934Z,4.07
2017-07-19T23:06:26.401Z,4.10
2017-07-19T23:08:52.850Z,4.80
2017-07-19T23:11:19.337Z,4.03
2017-07-19T23:13:45.897Z,4.05
2017-07-19T23:16:12.316Z,3.60
2017-07-19T23:18:38.752Z,4.70
2017-07-19T23:21:05.275Z,4.50
2017-07-19T23:23:31.721Z,4.62
2017-07-19T23:25:58.179Z,4.20
2017-07-19T23:28:24.619Z,4.37
2017-07-19T23:30:51.789Z,4.00
2017-07-19T23:33:18.956Z,4.10
2017-07-19T23:35:46.149Z,3.60
2017-07-19T23:38:13.326Z,3.80
2017-07-19T23:40:40.188Z,3.60
2017-07-19T23:43:07.103Z,3.72
2017-07-19T23:45:33.554Z,3.50
2017-07-19T23:47:59.966Z,3.83
2017-07-19T23:50:26.406Z,3.72
2017-07-19T23:52:53.601Z,4.05
2017-07-19T23:55:20.067Z,3.90
2017-07-19T23:57:46.484Z,3.85
